sensor_id;sensor_type;location;lat;lon;timestamp;pressure;altitude;pressure_sealevel;temperature;humidity
34961;BME280;30789;52.030;7.110;2023-07-09T00:00:06;101004.63;;;22.95;53.40
34961;BME280;30789;52.030;7.110;2023-07-09T00:02:39;101000.91;;;23.07;52.13
34961;BME280;30789;52.030;7.110;2023-07-09T00:05:10;101006.28;;;23.14;51.45
34961;BME280;30789;52.030;7.110;2023-07-09T00:07:37;101006.28;;;23.14;51.87
34961;BME280;30789;52.030;7.110;2023-07-09T00:10:09;100998.25;;;23.04;52.83
34961;BME280;30789;52.030;7.110;2023-07-09T00:12:41;100997.81;;;23.05;52.81
34961;BME280;30789;52.030;7.110;2023-07-09T00:15:09;100995.00;;;23.05;52.00
34961;BME280;30789;52.030;7.110;2023-07-09T00:17:36;100994.91;;;22.96;53.80
34961;BME280;30789;52.030;7.110;2023-07-09T00:20:06;100994.19;;;23.05;52.36
34961;BME280;30789;52.030;7.110;2023-07-09T00:22:36;100982.25;;;22.92;53.46
34961;BME280;30789;52.030;7.110;2023-07-09T00:25:05;100985.34;;;22.85;53.95
34961;BME280;30789;52.030;7.110;2023-07-09T00:27:31;100987.66;;;22.77;53.96
34961;BME280;30789;52.030;7.110;2023-07-09T00:29:59;100989.88;;;22.82;53.73
34961;BME280;30789;52.030;7.110;2023-07-09T00:32:26;100985.03;;;22.83;54.29
34961;BME280;30789;52.030;7.110;2023-07-09T00:34:53;100978.59;;;22.73;54.87
34961;BME280;30789;52.030;7.110;2023-07-09T00:37:24;100980.41;;;22.67;55.91
34961;BME280;30789;52.030;7.110;2023-07-09T00:39:51;100976.63;;;22.61;55.92
34961;BME280;30789;52.030;7.110;2023-07-09T00:42:20;100980.06;;;22.56;56.57
34961;BME280;30789;52.030;7.110;2023-07-09T00:44:51;100979.97;;;22.47;56.92
34961;BME280;30789;52.030;7.110;2023-07-09T00:47:22;100978.72;;;22.48;57.07
34961;BME280;30789;52.030;7.110;2023-07-09T00:49:59;100977.84;;;22.51;56.92
34961;BME280;30789;52.030;7.110;2023-07-09T00:52:32;100978.00;;;22.35;57.08
34961;BME280;30789;52.030;7.110;2023-07-09T00:55:03;100983.78;;;22.32;57.17
34961;BME280;30789;52.030;7.110;2023-07-09T00:57:33;100994.03;;;22.26;57.12
34961;BME280;30789;52.030;7.110;2023-07-09T01:00:06;100989.06;;;22.30;57.18
34961;BME280;30789;52.030;7.110;2023-07-09T01:02:36;100982.84;;;22.13;58.18
34961;BME280;30789;52.030;7.110;2023-07-09T01:05:03;100988.06;;;22.24;57.83
34961;BME280;30789;52.030;7.110;2023-07-09T01:07:31;100987.66;;;22.13;58.06
34961;BME280;30789;52.030;7.110;2023-07-09T01:09:58;100980.81;;;22.14;58.38
34961;BME280;30789;52.030;7.110;2023-07-09T01:12:25;100988.00;;;22.15;58.32
34961;BME280;30789;52.030;7.110;2023-07-09T01:14:53;100984.34;;;22.05;58.11
34961;BME280;30789;52.030;7.110;2023-07-09T01:17:24;100986.50;;;22.01;58.65
34961;BME280;30789;52.030;7.110;2023-07-09T01:19:55;100984.72;;;21.94;58.90
34961;BME280;30789;52.030;7.110;2023-07-09T01:22:23;100987.66;;;21.91;59.25
34961;BME280;30789;52.030;7.110;2023-07-09T01:24:54;100980.47;;;21.90;59.54
34961;BME280;30789;52.030;7.110;2023-07-09T01:27:23;100982.75;;;21.82;59.48
34961;BME280;30789;52.030;7.110;2023-07-09T01:29:52;100991.41;;;21.75;59.98
34961;BME280;30789;52.030;7.110;2023-07-09T01:32:20;100996.56;;;21.77;60.33
34961;BME280;30789;52.030;7.110;2023-07-09T01:34:49;100993.53;;;21.71;60.55
34961;BME280;30789;52.030;7.110;2023-07-09T01:37:20;100983.31;;;21.65;60.52
34961;BME280;30789;52.030;7.110;2023-07-09T01:39:49;100987.84;;;21.62;60.48
34961;BME280;30789;52.030;7.110;2023-07-09T01:42:16;100983.69;;;21.54;60.60
34961;BME280;30789;52.030;7.110;2023-07-09T01:44:42;100991.56;;;21.47;61.42
34961;BME280;30789;52.030;7.110;2023-07-09T01:47:10;100983.06;;;21.25;61.99
34961;BME280;30789;52.030;7.110;2023-07-09T01:49:37;100987.88;;;21.25;61.87
34961;BME280;30789;52.030;7.110;2023-07-09T01:52:06;100987.66;;;21.32;61.95
34961;BME280;30789;52.030;7.110;2023-07-09T01:54:34;100990.91;;;21.30;62.10
34961;BME280;30789;52.030;7.110;2023-07-09T01:57:15;100985.66;;;21.20;62.12
34961;BME280;30789;52.030;7.110;2023-07-09T01:59:44;100976.81;;;21.21;62.29
34961;BME280;30789;52.030;7.110;2023-07-09T02:02:11;100982.50;;;21.18;62.78
34961;BME280;30789;52.030;7.110;2023-07-09T02:04:47;100984.97;;;21.16;62.75
34961;BME280;30789;52.030;7.110;2023-07-09T02:07:14;100991.03;;;21.14;62.65
34961;BME280;30789;52.030;7.110;2023-07-09T02:09:41;100982.06;;;21.07;62.66
34961;BME280;30789;52.030;7.110;2023-07-09T02:12:09;100986.22;;;21.02;62.50
34961;BME280;30789;52.030;7.110;2023-07-09T02:14:37;100989.13;;;20.99;63.27
34961;BME280;30789;52.030;7.110;2023-07-09T02:17:04;100995.88;;;21.01;63.00
34961;BME280;30789;52.030;7.110;2023-07-09T02:19:31;100997.78;;;21.04;63.22
34961;BME280;30789;52.030;7.110;2023-07-09T02:21:57;100993.97;;;20.98;63.29
34961;BME280;30789;52.030;7.110;2023-07-09T02:24:24;101005.16;;;20.98;63.56
34961;BME280;30789;52.030;7.110;2023-07-09T02:26:52;101004.38;;;20.98;63.47
34961;BME280;30789;52.030;7.110;2023-07-09T02:29:19;101005.78;;;20.90;63.82
34961;BME280;30789;52.030;7.110;2023-07-09T02:31:48;101010.28;;;20.87;64.55
34961;BME280;30789;52.030;7.110;2023-07-09T02:34:14;100998.59;;;20.76;64.43
34961;BME280;30789;52.030;7.110;2023-07-09T02:36:41;101007.00;;;20.76;64.51
34961;BME280;30789;52.030;7.110;2023-07-09T02:39:08;101003.63;;;20.69;64.73
34961;BME280;30789;52.030;7.110;2023-07-09T02:41:35;101002.84;;;20.68;65.08
34961;BME280;30789;52.030;7.110;2023-07-09T02:44:01;101013.28;;;20.68;65.26
34961;BME280;30789;52.030;7.110;2023-07-09T02:46:28;101006.09;;;20.67;65.32
34961;BME280;30789;52.030;7.110;2023-07-09T02:48:56;101001.94;;;20.59;65.55
34961;BME280;30789;52.030;7.110;2023-07-09T02:51:23;101006.41;;;20.56;65.34
34961;BME280;30789;52.030;7.110;2023-07-09T02:53:52;101011.34;;;20.52;65.37
34961;BME280;30789;52.030;7.110;2023-07-09T02:56:19;101014.69;;;20.47;65.32
34961;BME280;30789;52.030;7.110;2023-07-09T02:58:45;101013.13;;;20.46;65.80
34961;BME280;30789;52.030;7.110;2023-07-09T03:01:12;101017.13;;;20.45;65.75
34961;BME280;30789;52.030;7.110;2023-07-09T03:03:38;101011.22;;;20.43;66.35
34961;BME280;30789;52.030;7.110;2023-07-09T03:06:07;101019.34;;;20.38;66.88
34961;BME280;30789;52.030;7.110;2023-07-09T03:08:34;101018.59;;;20.37;66.69
34961;BME280;30789;52.030;7.110;2023-07-09T03:11:08;101021.56;;;20.30;66.83
34961;BME280;30789;52.030;7.110;2023-07-09T03:13:35;101016.31;;;20.32;67.26
34961;BME280;30789;52.030;7.110;2023-07-09T03:16:01;101027.03;;;20.21;67.23
34961;BME280;30789;52.030;7.110;2023-07-09T03:18:28;101020.97;;;20.22;67.61
34961;BME280;30789;52.030;7.110;2023-07-09T03:20:54;101022.09;;;20.25;67.76
34961;BME280;30789;52.030;7.110;2023-07-09T03:23:22;101024.00;;;20.15;67.53
34961;BME280;30789;52.030;7.110;2023-07-09T03:25:49;101030.69;;;20.18;67.64
34961;BME280;30789;52.030;7.110;2023-07-09T03:28:16;101036.03;;;20.12;68.09
34961;BME280;30789;52.030;7.110;2023-07-09T03:30:44;101039.09;;;20.18;67.70
34961;BME280;30789;52.030;7.110;2023-07-09T03:33:12;101036.75;;;20.16;67.75
34961;BME280;30789;52.030;7.110;2023-07-09T03:35:39;101032.25;;;20.19;67.97
34961;BME280;30789;52.030;7.110;2023-07-09T03:38:06;101032.53;;;20.24;68.15
34961;BME280;30789;52.030;7.110;2023-07-09T03:40:34;101040.03;;;20.27;67.71
34961;BME280;30789;52.030;7.110;2023-07-09T03:43:02;101035.84;;;20.19;68.59
34961;BME280;30789;52.030;7.110;2023-07-09T03:45:28;101032.53;;;20.24;68.09
34961;BME280;30789;52.030;7.110;2023-07-09T03:47:55;101040.84;;;20.28;67.95
34961;BME280;30789;52.030;7.110;2023-07-09T03:50:22;101036.22;;;20.21;68.17
34961;BME280;30789;52.030;7.110;2023-07-09T03:52:48;101041.81;;;20.21;68.41
34961;BME280;30789;52.030;7.110;2023-07-09T03:55:15;101037.09;;;20.18;68.11
34961;BME280;30789;52.030;7.110;2023-07-09T03:57:43;101038.81;;;20.28;67.46
34961;BME280;30789;52.030;7.110;2023-07-09T04:00:10;101037.69;;;20.26;67.64
34961;BME280;30789;52.030;7.110;2023-07-09T04:02:38;101045.63;;;20.27;67.91
34961;BME280;30789;52.030;7.110;2023-07-09T04:05:05;101045.09;;;20.33;68.59
34961;BME280;30789;52.030;7.110;2023-07-09T04:07:33;101044.91;;;20.40;68.04
34961;BME280;30789;52.030;7.110;2023-07-09T04:10:00;101042.09;;;20.40;68.45
34961;BME280;30789;52.030;7.110;2023-07-09T04:12:27;101043.66;;;20.41;68.34
34961;BME280;30789;52.030;7.110;2023-07-09T04:14:55;101050.06;;;20.41;68.00
34961;BME280;30789;52.030;7.110;2023-07-09T04:17:22;101050.28;;;20.47;68.00
34961;BME280;30789;52.030;7.110;2023-07-09T04:19:49;101044.69;;;20.47;67.76
34961;BME280;30789;52.030;7.110;2023-07-09T04:22:16;101043.34;;;20.51;68.18
34961;BME280;30789;52.030;7.110;2023-07-09T04:24:43;101038.81;;;20.57;67.59
34961;BME280;30789;52.030;7.110;2023-07-09T04:27:09;101032.41;;;20.57;67.37
34961;BME280;30789;52.030;7.110;2023-07-09T04:29:36;101035.66;;;20.55;67.21
34961;BME280;30789;52.030;7.110;2023-07-09T04:32:05;101036.22;;;20.63;67.63
34961;BME280;30789;52.030;7.110;2023-07-09T04:34:32;101034.53;;;20.65;67.87
34961;BME280;30789;52.030;7.110;2023-07-09T04:36:59;101041.28;;;20.68;67.43
34961;BME280;30789;52.030;7.110;2023-07-09T04:39:25;101036.22;;;20.63;67.41
34961;BME280;30789;52.030;7.110;2023-07-09T04:41:52;101034.78;;;20.71;67.82
34961;BME280;30789;52.030;7.110;2023-07-09T04:44:18;101033.56;;;20.72;67.26
34961;BME280;30789;52.030;7.110;2023-07-09T04:46:45;101037.41;;;20.90;66.50
34961;BME280;30789;52.030;7.110;2023-07-09T04:49:12;101041.66;;;20.95;66.75
34961;BME280;30789;52.030;7.110;2023-07-09T04:51:39;101051.66;;;20.96;67.08
34961;BME280;30789;52.030;7.110;2023-07-09T04:54:05;101047.97;;;20.99;66.97
34961;BME280;30789;52.030;7.110;2023-07-09T04:56:32;101046.75;;;21.00;66.69
34961;BME280;30789;52.030;7.110;2023-07-09T04:58:58;101052.22;;;21.03;65.24
34961;BME280;30789;52.030;7.110;2023-07-09T05:01:26;101052.69;;;21.14;66.08
34961;BME280;30789;52.030;7.110;2023-07-09T05:03:52;101055.75;;;21.20;65.94
34961;BME280;30789;52.030;7.110;2023-07-09T05:06:20;101049.91;;;21.27;65.76
34961;BME280;30789;52.030;7.110;2023-07-09T05:08:47;101054.06;;;21.35;65.57
34961;BME280;30789;52.030;7.110;2023-07-09T05:11:14;101054.50;;;21.46;65.50
34961;BME280;30789;52.030;7.110;2023-07-09T05:13:41;101052.34;;;21.62;63.12
34961;BME280;30789;52.030;7.110;2023-07-09T05:16:07;101061.41;;;21.91;60.22
34961;BME280;30789;52.030;7.110;2023-07-09T05:18:34;101058.75;;;22.10;60.33
34961;BME280;30789;52.030;7.110;2023-07-09T05:21:00;101058.38;;;22.20;59.94
34961;BME280;30789;52.030;7.110;2023-07-09T05:23:28;101049.81;;;22.36;58.86
34961;BME280;30789;52.030;7.110;2023-07-09T05:25:56;101049.53;;;22.43;59.34
34961;BME280;30789;52.030;7.110;2023-07-09T05:28:23;101048.88;;;22.39;59.54
34961;BME280;30789;52.030;7.110;2023-07-09T05:30:49;101047.97;;;22.42;59.37
34961;BME280;30789;52.030;7.110;2023-07-09T05:33:16;101048.84;;;22.52;59.58
34961;BME280;30789;52.030;7.110;2023-07-09T05:35:44;101042.84;;;22.62;58.88
34961;BME280;30789;52.030;7.110;2023-07-09T05:38:11;101045.97;;;22.64;59.01
34961;BME280;30789;52.030;7.110;2023-07-09T05:40:39;101047.59;;;22.74;58.50
34961;BME280;30789;52.030;7.110;2023-07-09T05:43:06;101034.53;;;22.80;58.36
34961;BME280;30789;52.030;7.110;2023-07-09T05:45:32;101035.81;;;22.88;59.35
34961;BME280;30789;52.030;7.110;2023-07-09T05:47:59;101041.94;;;22.96;58.38
34961;BME280;30789;52.030;7.110;2023-07-09T05:50:25;101043.88;;;23.08;58.14
34961;BME280;30789;52.030;7.110;2023-07-09T05:52:52;101048.56;;;23.11;57.89
34961;BME280;30789;52.030;7.110;2023-07-09T05:55:18;101053.31;;;23.23;57.74
34961;BME280;30789;52.030;7.110;2023-07-09T05:57:46;101053.88;;;23.39;56.64
34961;BME280;30789;52.030;7.110;2023-07-09T06:00:14;101060.91;;;23.44;56.46
34961;BME280;30789;52.030;7.110;2023-07-09T06:02:40;101052.94;;;23.42;57.02
34961;BME280;30789;52.030;7.110;2023-07-09T06:05:08;101053.75;;;23.52;57.77
34961;BME280;30789;52.030;7.110;2023-07-09T06:07:36;101049.56;;;23.66;55.18
34961;BME280;30789;52.030;7.110;2023-07-09T06:10:04;101053.97;;;23.67;55.63
34961;BME280;30789;52.030;7.110;2023-07-09T06:12:31;101050.25;;;23.79;55.84
34961;BME280;30789;52.030;7.110;2023-07-09T06:14:59;101054.34;;;23.87;56.09
34961;BME280;30789;52.030;7.110;2023-07-09T06:17:26;101051.22;;;23.94;55.01
34961;BME280;30789;52.030;7.110;2023-07-09T06:19:52;101052.19;;;24.00;54.94
34961;BME280;30789;52.030;7.110;2023-07-09T06:22:19;101050.97;;;24.10;54.57
34961;BME280;30789;52.030;7.110;2023-07-09T06:24:45;101052.66;;;24.25;54.56
34961;BME280;30789;52.030;7.110;2023-07-09T06:27:12;101058.13;;;24.29;55.52
34961;BME280;30789;52.030;7.110;2023-07-09T06:29:38;101062.53;;;24.39;54.85
34961;BME280;30789;52.030;7.110;2023-07-09T06:32:07;101066.09;;;24.48;53.72
34961;BME280;30789;52.030;7.110;2023-07-09T06:34:34;101068.63;;;24.55;54.37
34961;BME280;30789;52.030;7.110;2023-07-09T06:37:00;101072.53;;;24.58;55.09
34961;BME280;30789;52.030;7.110;2023-07-09T06:39:27;101075.19;;;24.61;54.99
34961;BME280;30789;52.030;7.110;2023-07-09T06:41:53;101083.06;;;24.66;54.74
34961;BME280;30789;52.030;7.110;2023-07-09T06:44:19;101086.94;;;24.78;54.48
34961;BME280;30789;52.030;7.110;2023-07-09T06:46:46;101087.56;;;24.82;54.55
34961;BME280;30789;52.030;7.110;2023-07-09T06:49:14;101088.66;;;24.84;55.42
34961;BME280;30789;52.030;7.110;2023-07-09T06:51:41;101090.50;;;24.96;55.68
34961;BME280;30789;52.030;7.110;2023-07-09T06:54:07;101085.34;;;24.95;54.88
34961;BME280;30789;52.030;7.110;2023-07-09T06:56:34;101085.16;;;25.07;54.81
34961;BME280;30789;52.030;7.110;2023-07-09T06:59:01;101081.22;;;25.05;54.98
34961;BME280;30789;52.030;7.110;2023-07-09T07:01:27;101087.78;;;25.20;54.10
34961;BME280;30789;52.030;7.110;2023-07-09T07:03:54;101090.75;;;25.26;54.21
34961;BME280;30789;52.030;7.110;2023-07-09T07:06:22;101089.47;;;25.36;53.98
34961;BME280;30789;52.030;7.110;2023-07-09T07:08:48;101097.16;;;25.35;52.90
34961;BME280;30789;52.030;7.110;2023-07-09T07:11:15;101091.97;;;25.43;53.66
34961;BME280;30789;52.030;7.110;2023-07-09T07:13:41;101089.69;;;25.56;53.45
34961;BME280;30789;52.030;7.110;2023-07-09T07:16:09;101094.38;;;25.68;52.96
34961;BME280;30789;52.030;7.110;2023-07-09T07:18:36;101092.09;;;25.81;54.02
34961;BME280;30789;52.030;7.110;2023-07-09T07:21:03;101091.22;;;25.89;54.71
34961;BME280;30789;52.030;7.110;2023-07-09T07:23:32;101097.34;;;25.97;53.09
34961;BME280;30789;52.030;7.110;2023-07-09T07:25:58;101089.00;;;26.02;53.41
34961;BME280;30789;52.030;7.110;2023-07-09T07:28:25;101085.44;;;26.16;51.88
34961;BME280;30789;52.030;7.110;2023-07-09T07:30:59;101085.63;;;26.13;52.54
34961;BME280;30789;52.030;7.110;2023-07-09T07:33:26;101083.03;;;26.24;52.11
34961;BME280;30789;52.030;7.110;2023-07-09T07:35:52;101083.81;;;26.24;52.10
34961;BME280;30789;52.030;7.110;2023-07-09T07:38:18;101084.72;;;26.30;52.09
34961;BME280;30789;52.030;7.110;2023-07-09T07:40:46;101083.66;;;26.42;53.45
34961;BME280;30789;52.030;7.110;2023-07-09T07:43:13;101079.69;;;26.49;52.44
34961;BME280;30789;52.030;7.110;2023-07-09T07:45:40;101073.97;;;26.58;51.58
34961;BME280;30789;52.030;7.110;2023-07-09T07:48:07;101080.97;;;26.62;50.14
34961;BME280;30789;52.030;7.110;2023-07-09T07:50:33;101079.06;;;26.68;51.36
34961;BME280;30789;52.030;7.110;2023-07-09T07:52:59;101075.75;;;26.85;51.68
34961;BME280;30789;52.030;7.110;2023-07-09T07:55:26;101079.75;;;26.93;51.51
34961;BME280;30789;52.030;7.110;2023-07-09T07:57:54;101078.19;;;27.06;51.69
34961;BME280;30789;52.030;7.110;2023-07-09T08:00:22;101072.34;;;27.10;51.17
34961;BME280;30789;52.030;7.110;2023-07-09T08:02:48;101073.78;;;27.20;50.84
34961;BME280;30789;52.030;7.110;2023-07-09T08:05:16;101087.66;;;27.18;51.05
34961;BME280;30789;52.030;7.110;2023-07-09T08:07:42;101078.69;;;27.34;50.55
34961;BME280;30789;52.030;7.110;2023-07-09T08:10:09;101080.81;;;27.39;50.80
34961;BME280;30789;52.030;7.110;2023-07-09T08:12:37;101080.91;;;27.44;50.32
34961;BME280;30789;52.030;7.110;2023-07-09T08:15:06;101087.22;;;27.54;48.70
34961;BME280;30789;52.030;7.110;2023-07-09T08:17:33;101080.22;;;27.49;49.69
34961;BME280;30789;52.030;7.110;2023-07-09T08:19:59;101084.50;;;27.59;50.69
34961;BME280;30789;52.030;7.110;2023-07-09T08:22:26;101072.06;;;27.71;49.38
34961;BME280;30789;52.030;7.110;2023-07-09T08:24:52;101076.81;;;27.80;48.70
34961;BME280;30789;52.030;7.110;2023-07-09T08:27:19;101072.31;;;27.88;48.65
34961;BME280;30789;52.030;7.110;2023-07-09T08:29:45;101078.91;;;27.99;48.55
34961;BME280;30789;52.030;7.110;2023-07-09T08:32:14;101069.06;;;28.15;49.92
34961;BME280;30789;52.030;7.110;2023-07-09T08:34:41;101071.75;;;28.24;48.07
34961;BME280;30789;52.030;7.110;2023-07-09T08:37:08;101073.44;;;28.36;48.61
34961;BME280;30789;52.030;7.110;2023-07-09T08:39:35;101071.03;;;28.49;47.70
34961;BME280;30789;52.030;7.110;2023-07-09T08:42:03;101077.34;;;28.59;48.00
34961;BME280;30789;52.030;7.110;2023-07-09T08:45:03;101078.88;;;28.85;47.85
34961;BME280;30789;52.030;7.110;2023-07-09T08:47:42;101080.38;;;28.81;46.48
34961;BME280;30789;52.030;7.110;2023-07-09T08:50:14;101071.94;;;28.86;47.33
34961;BME280;30789;52.030;7.110;2023-07-09T08:52:44;101071.13;;;29.06;47.82
34961;BME280;30789;52.030;7.110;2023-07-09T08:55:13;101071.75;;;29.21;46.67
34961;BME280;30789;52.030;7.110;2023-07-09T08:57:43;101072.84;;;29.29;46.26
34961;BME280;30789;52.030;7.110;2023-07-09T09:00:16;101072.44;;;29.41;47.29
34961;BME280;30789;52.030;7.110;2023-07-09T09:02:50;101075.41;;;29.58;47.19
34961;BME280;30789;52.030;7.110;2023-07-09T09:05:19;101069.59;;;29.78;47.06
34961;BME280;30789;52.030;7.110;2023-07-09T09:07:50;101072.97;;;29.76;47.25
34961;BME280;30789;52.030;7.110;2023-07-09T09:10:22;101074.03;;;29.84;46.77
34961;BME280;30789;52.030;7.110;2023-07-09T09:12:59;101073.63;;;30.03;45.95
34961;BME280;30789;52.030;7.110;2023-07-09T09:15:30;101069.75;;;30.06;44.50
34961;BME280;30789;52.030;7.110;2023-07-09T09:18:18;101064.56;;;30.04;45.29
34961;BME280;30789;52.030;7.110;2023-07-09T09:20:48;101069.84;;;30.22;46.09
34961;BME280;30789;52.030;7.110;2023-07-09T09:23:17;101064.22;;;30.39;45.16
34961;BME280;30789;52.030;7.110;2023-07-09T09:25:47;101074.38;;;30.73;44.13
34961;BME280;30789;52.030;7.110;2023-07-09T09:28:15;101064.88;;;31.03;44.49
34961;BME280;30789;52.030;7.110;2023-07-09T09:30:42;101067.22;;;31.27;42.97
34961;BME280;30789;52.030;7.110;2023-07-09T09:33:10;101067.19;;;31.60;41.30
34961;BME280;30789;52.030;7.110;2023-07-09T09:35:40;101075.69;;;31.77;40.21
34961;BME280;30789;52.030;7.110;2023-07-09T09:38:10;101062.06;;;32.27;37.98
34961;BME280;30789;52.030;7.110;2023-07-09T09:40:38;101061.28;;;32.26;37.52
34961;BME280;30789;52.030;7.110;2023-07-09T09:43:11;101061.84;;;32.71;37.69
34961;BME280;30789;52.030;7.110;2023-07-09T09:45:40;101061.06;;;33.11;37.95
34961;BME280;30789;52.030;7.110;2023-07-09T09:48:13;101066.09;;;33.29;36.53
34961;BME280;30789;52.030;7.110;2023-07-09T09:50:42;101061.78;;;33.47;36.99
34961;BME280;30789;52.030;7.110;2023-07-09T09:53:18;101059.06;;;33.60;32.83
34961;BME280;30789;52.030;7.110;2023-07-09T09:55:45;101061.38;;;34.09;33.84
34961;BME280;30789;52.030;7.110;2023-07-09T09:58:14;101059.13;;;34.21;34.22
34961;BME280;30789;52.030;7.110;2023-07-09T10:00:48;101056.72;;;34.25;33.72
34961;BME280;30789;52.030;7.110;2023-07-09T10:03:15;101063.88;;;34.37;35.27
34961;BME280;30789;52.030;7.110;2023-07-09T10:05:45;101067.91;;;34.66;34.66
34961;BME280;30789;52.030;7.110;2023-07-09T10:08:20;101064.19;;;34.71;33.15
34961;BME280;30789;52.030;7.110;2023-07-09T10:10:52;101066.31;;;34.83;31.65
34961;BME280;30789;52.030;7.110;2023-07-09T10:13:23;101067.69;;;35.14;31.73
34961;BME280;30789;52.030;7.110;2023-07-09T10:16:01;101071.94;;;35.26;31.96
34961;BME280;30789;52.030;7.110;2023-07-09T10:18:38;101071.41;;;35.40;33.99
34961;BME280;30789;52.030;7.110;2023-07-09T10:21:13;101066.59;;;35.48;31.31
34961;BME280;30789;52.030;7.110;2023-07-09T10:23:48;101066.38;;;35.72;30.61
34961;BME280;30789;52.030;7.110;2023-07-09T10:26:23;101067.81;;;35.53;31.02
34961;BME280;30789;52.030;7.110;2023-07-09T10:29:03;101055.78;;;35.41;30.65
34961;BME280;30789;52.030;7.110;2023-07-09T10:31:41;101057.56;;;35.44;30.40
34961;BME280;30789;52.030;7.110;2023-07-09T10:34:23;101059.69;;;35.96;31.36
34961;BME280;30789;52.030;7.110;2023-07-09T10:37:08;101056.50;;;35.86;30.06
34961;BME280;30789;52.030;7.110;2023-07-09T10:39:45;101051.06;;;35.70;32.04
34961;BME280;30789;52.030;7.110;2023-07-09T10:42:18;101042.34;;;36.01;31.07
34961;BME280;30789;52.030;7.110;2023-07-09T10:44:54;101041.22;;;36.31;29.62
34961;BME280;30789;52.030;7.110;2023-07-09T10:47:28;101038.34;;;36.31;31.03
34961;BME280;30789;52.030;7.110;2023-07-09T10:49:56;101039.69;;;36.63;31.37
34961;BME280;30789;52.030;7.110;2023-07-09T10:52:29;101023.03;;;36.62;28.25
34961;BME280;30789;52.030;7.110;2023-07-09T10:54:59;101038.09;;;36.42;28.82
34961;BME280;30789;52.030;7.110;2023-07-09T10:57:30;101032.03;;;36.45;30.18
34961;BME280;30789;52.030;7.110;2023-07-09T10:59:57;101030.94;;;36.69;28.86
34961;BME280;30789;52.030;7.110;2023-07-09T11:02:28;101031.16;;;36.71;28.83
34961;BME280;30789;52.030;7.110;2023-07-09T11:04:58;101031.91;;;37.05;29.89
34961;BME280;30789;52.030;7.110;2023-07-09T11:07:29;101032.28;;;37.22;27.46
34961;BME280;30789;52.030;7.110;2023-07-09T11:09:58;101046.03;;;37.44;29.34
34961;BME280;30789;52.030;7.110;2023-07-09T11:12:30;101036.25;;;37.39;29.05
34961;BME280;30789;52.030;7.110;2023-07-09T11:15:02;101036.56;;;37.56;29.00
34961;BME280;30789;52.030;7.110;2023-07-09T11:17:30;101033.13;;;37.58;27.79
34961;BME280;30789;52.030;7.110;2023-07-09T11:19:59;101035.28;;;37.93;26.52
34961;BME280;30789;52.030;7.110;2023-07-09T11:22:36;101028.97;;;38.02;25.79
34961;BME280;30789;52.030;7.110;2023-07-09T11:25:07;101031.25;;;37.96;24.99
34961;BME280;30789;52.030;7.110;2023-07-09T11:27:45;101031.50;;;38.06;27.97
34961;BME280;30789;52.030;7.110;2023-07-09T11:30:20;101025.47;;;37.89;25.81
34961;BME280;30789;52.030;7.110;2023-07-09T11:32:52;101033.34;;;37.88;26.49
34961;BME280;30789;52.030;7.110;2023-07-09T11:35:22;101020.47;;;38.17;25.62
34961;BME280;30789;52.030;7.110;2023-07-09T11:37:50;101011.09;;;38.32;25.70
34961;BME280;30789;52.030;7.110;2023-07-09T11:40:18;101011.63;;;38.96;24.64
34961;BME280;30789;52.030;7.110;2023-07-09T11:42:51;101007.06;;;39.08;25.09
34961;BME280;30789;52.030;7.110;2023-07-09T11:45:21;100999.75;;;39.22;26.13
34961;BME280;30789;52.030;7.110;2023-07-09T11:47:55;100997.25;;;39.18;25.43
34961;BME280;30789;52.030;7.110;2023-07-09T11:50:28;100980.13;;;38.90;24.43
34961;BME280;30789;52.030;7.110;2023-07-09T11:52:59;100988.34;;;38.64;26.19
34961;BME280;30789;52.030;7.110;2023-07-09T11:55:28;100982.66;;;39.01;24.76
34961;BME280;30789;52.030;7.110;2023-07-09T11:57:56;100982.41;;;39.60;24.91
34961;BME280;30789;52.030;7.110;2023-07-09T12:00:25;100975.25;;;39.68;24.28
34961;BME280;30789;52.030;7.110;2023-07-09T12:02:53;100976.09;;;39.23;24.24
34961;BME280;30789;52.030;7.110;2023-07-09T12:05:24;100967.38;;;39.69;23.97
34961;BME280;30789;52.030;7.110;2023-07-09T12:07:52;100974.06;;;39.79;24.11
34961;BME280;30789;52.030;7.110;2023-07-09T12:10:22;100971.34;;;39.96;23.95
34961;BME280;30789;52.030;7.110;2023-07-09T12:12:53;100971.38;;;39.88;24.44
34961;BME280;30789;52.030;7.110;2023-07-09T12:15:21;100967.84;;;39.28;23.27
34961;BME280;30789;52.030;7.110;2023-07-09T12:17:58;100965.69;;;39.28;23.89
34961;BME280;30789;52.030;7.110;2023-07-09T12:20:28;100973.81;;;39.07;26.64
34961;BME280;30789;52.030;7.110;2023-07-09T12:22:55;100974.00;;;39.09;25.09
34961;BME280;30789;52.030;7.110;2023-07-09T12:25:26;100971.47;;;38.90;25.32
34961;BME280;30789;52.030;7.110;2023-07-09T12:27:53;100981.84;;;38.78;25.90
34961;BME280;30789;52.030;7.110;2023-07-09T12:30:20;100977.94;;;38.53;23.83
34961;BME280;30789;52.030;7.110;2023-07-09T12:32:48;100972.94;;;38.46;25.91
34961;BME280;30789;52.030;7.110;2023-07-09T12:35:18;100958.34;;;38.52;25.86
34961;BME280;30789;52.030;7.110;2023-07-09T12:37:46;100973.66;;;38.32;24.30
34961;BME280;30789;52.030;7.110;2023-07-09T12:40:16;100971.66;;;38.77;24.29
34961;BME280;30789;52.030;7.110;2023-07-09T12:42:46;100964.38;;;39.06;24.49
34961;BME280;30789;52.030;7.110;2023-07-09T12:45:18;100972.28;;;39.06;24.04
34961;BME280;30789;52.030;7.110;2023-07-09T12:47:46;100969.91;;;38.89;23.66
34961;BME280;30789;52.030;7.110;2023-07-09T12:50:26;100966.47;;;38.76;25.22
34961;BME280;30789;52.030;7.110;2023-07-09T12:53:01;100962.00;;;38.45;23.64
34961;BME280;30789;52.030;7.110;2023-07-09T12:55:38;100962.25;;;38.84;25.57
34961;BME280;30789;52.030;7.110;2023-07-09T12:58:18;100958.81;;;39.08;25.30